Time;durP1;ratioP1;P1;durP2;ratioP2;P2;SDS_P1;SDS_P2;PMS_P1;PMS_P2;Temp;Humidity;BMP_temperature;BMP_pressure;BME280_temperature;BME280_humidity;BME280_pressure;Samples;Min_cycle;Max_cycle;Signal;HPM_P1;HPM_P2
2021/06/29 00:01:27;;;;;;;15.52;6.07;;;;;;;17.33;86.66;101375.88;5160002;27;20458;-63
2021/06/29 00:03:55;;;;;;;11.40;5.45;;;;;;;17.31;86.67;101392.28;5160882;27;20074;-59
2021/06/29 00:06:23;;;;;;;9.95;5.40;;;;;;;17.28;86.44;101401.41;5169762;27;20097;-60
2021/06/29 00:08:51;;;;;;;10.88;5.35;;;;;;;17.27;86.64;101408.22;5172435;27;20114;-58
2021/06/29 00:11:24;;;;;;;10.82;5.55;;;;;;;17.26;86.56;101400.91;5172781;27;20371;-60
2021/06/29 00:13:53;;;;;;;11.75;5.18;;;;;;;17.26;86.46;101402.91;5172871;27;20026;-59
2021/06/29 00:16:21;;;;;;;10.15;5.13;;;;;;;17.25;86.23;101393.59;5172014;27;20125;-63
2021/06/29 00:18:49;;;;;;;14.05;5.53;;;;;;;17.25;86.17;101401.25;5172714;27;20053;-60
2021/06/29 00:21:17;;;;;;;9.15;4.93;;;;;;;17.24;85.84;101394.75;5167090;27;20551;-60
2021/06/29 00:23:45;;;;;;;10.05;4.40;;;;;;;17.23;85.92;101393.09;5165088;27;20440;-60
2021/06/29 00:26:14;;;;;;;11.10;5.15;;;;;;;17.21;85.82;101395.41;5172568;27;20039;-62
2021/06/29 00:28:43;;;;;;;13.65;5.53;;;;;;;17.19;85.91;101400.56;5173633;27;20069;-59
2021/06/29 00:31:11;;;;;;;10.95;4.93;;;;;;;17.16;85.78;101390.81;5171266;27;20073;-55
2021/06/29 00:33:39;;;;;;;16.85;5.47;;;;;;;17.14;85.64;101395.94;5167971;27;20035;-58
2021/06/29 00:36:08;;;;;;;11.55;5.32;;;;;;;17.12;85.88;101388.97;5158491;27;20058;-57
2021/06/29 00:38:35;;;;;;;12.05;5.18;;;;;;;17.10;nan;101383.66;5173035;27;20133;-53
2021/06/29 00:41:04;;;;;;;11.02;5.85;;;;;;;17.08;85.90;101385.97;5171792;27;20030;-56
2021/06/29 00:43:31;;;;;;;9.70;5.30;;;;;;;17.07;86.08;101380.66;5167256;27;20114;-57
2021/06/29 00:46:01;;;;;;;14.68;5.45;;;;;;;17.05;86.26;101380.97;5162769;27;20452;-57
2021/06/29 00:48:29;;;;;;;16.23;6.38;;;;;;;17.05;86.37;101380.97;5163474;27;20053;-60
2021/06/29 00:50:57;;;;;;;12.23;5.53;;;;;;;17.04;86.39;101379.31;5163660;27;20051;-59
2021/06/29 00:53:25;;;;;;;14.05;5.10;;;;;;;17.04;86.63;101372.84;5163943;27;20051;-59
2021/06/29 00:55:53;;;;;;;15.00;5.32;;;;;;;17.04;86.86;101368.03;5173737;27;20042;-57
2021/06/29 00:58:21;;;;;;;14.15;5.45;;;;;;;17.04;86.87;101367.22;5171047;27;20094;-63
2021/06/29 01:00:51;;;;;;;10.93;5.32;;;;;;;17.03;86.92;101357.09;5171924;27;20042;-60
2021/06/29 01:03:20;;;;;;;10.95;4.80;;;;;;;17.00;87.25;101352.94;5171717;27;20045;-60
2021/06/29 01:05:48;;;;;;;12.00;5.13;;;;;;;16.99;87.28;101354.09;5171330;27;20038;-60
2021/06/29 01:08:17;;;;;;;18.25;6.10;;;;;;;17.00;87.56;101360.56;5171694;27;20121;-60
2021/06/29 01:10:45;;;;;;;11.32;5.70;;;;;;;16.99;87.83;101353.28;5172056;27;20066;-61
2021/06/29 01:13:13;;;;;;;14.38;6.10;;;;;;;16.99;88.04;101353.28;5171192;27;20095;-63
2021/06/29 01:15:41;;;;;;;14.10;5.68;;;;;;;17.00;88.20;101354.94;5168810;27;20074;-61
2021/06/29 01:18:12;;;;;;;18.65;6.10;;;;;;;17.00;88.25;101352.09;5171718;27;20063;-58
2021/06/29 01:20:41;;;;;;;11.97;5.17;;;;;;;17.00;88.40;101354.94;5166368;27;20041;-61
2021/06/29 01:23:12;;;;;;;12.23;5.07;;;;;;;17.00;88.47;101360.56;5171511;27;20038;-60
2021/06/29 01:25:43;;;;;;;15.60;5.43;;;;;;;17.01;88.56;101356.59;5167026;27;20129;-61
2021/06/29 01:28:20;;;;;;;12.13;4.80;;;;;;;17.01;88.54;101346.16;5159537;27;20043;-61
2021/06/29 01:31:02;;;;;;;11.27;4.38;;;;;;;17.01;88.39;101345.31;5172083;27;20432;-64
2021/06/29 01:33:30;;;;;;;13.57;4.60;;;;;;;17.03;87.96;101340.19;5160646;27;20051;-56
2021/06/29 01:36:00;;;;;;;13.15;5.10;;;;;;;17.05;88.13;101332.22;5171973;27;20035;-56
2021/06/29 01:38:29;;;;;;;13.85;4.75;;;;;;;17.07;88.11;101327.06;5159600;27;20047;-57
2021/06/29 01:40:57;;;;;;;11.50;4.80;;;;;;;17.09;88.17;101327.59;5173076;27;20094;-54
2021/06/29 01:43:27;;;;;;;9.73;4.35;;;;;;;17.10;88.20;101332.06;5168758;27;20097;-56
2021/06/29 01:45:56;;;;;;;10.98;4.40;;;;;;;17.10;88.15;101346.16;5167140;27;20474;-57
2021/06/29 01:48:25;;;;;;;10.88;3.88;;;;;;;17.11;88.11;101347.81;5167045;27;20157;-59
2021/06/29 01:50:55;;;;;;;10.27;4.53;;;;;;;17.14;88.02;101352.81;5167649;27;20529;-59
2021/06/29 01:53:25;;;;;;;8.27;4.03;;;;;;;17.13;87.82;101348.31;5161343;27;20044;-61
2021/06/29 01:55:53;;;;;;;9.65;4.18;;;;;;;17.13;87.99;101342.69;5164613;27;20537;-59
2021/06/29 01:58:24;;;;;;;10.13;4.15;;;;;;;17.14;87.92;101336.72;5162729;27;20043;-59
2021/06/29 02:00:53;;;;;;;9.07;4.20;;;;;;;17.12;87.84;101330.56;5170581;27;20081;-60
2021/06/29 02:03:21;;;;;;;11.32;3.80;;;;;;;17.11;87.80;101331.72;5170034;27;20050;-59
2021/06/29 02:05:50;;;;;;;8.07;3.40;;;;;;;17.13;87.71;101337.03;5170621;27;20454;-61
2021/06/29 02:08:18;;;;;;;11.25;3.90;;;;;;;17.13;87.59;101337.88;5169888;27;20050;-55
2021/06/29 02:10:47;;;;;;;9.70;4.28;;;;;;;17.13;87.69;101325.75;5170441;27;20563;-59
2021/06/29 02:13:15;;;;;;;8.77;3.42;;;;;;;17.12;87.77;101319.28;5170688;27;20042;-57
2021/06/29 02:15:43;;;;;;;8.20;3.70;;;;;;;17.12;87.61;101321.28;5174351;27;20046;-63
2021/06/29 02:18:11;;;;;;;9.95;3.63;;;;;;;17.10;87.68;101320.78;5167530;27;20403;-60
2021/06/29 02:20:39;;;;;;;8.95;3.67;;;;;;;17.10;87.92;101332.06;5165504;27;20069;-60
2021/06/29 02:23:07;;;;;;;9.40;3.95;;;;;;;17.10;87.93;101315.13;5169862;27;20045;-58
2021/06/29 02:25:35;;;;;;;8.15;3.10;;;;;;;17.08;87.98;101303.38;5170441;27;20490;-62
2021/06/29 02:28:04;;;;;;;12.05;4.13;;;;;;;17.10;88.00;101309.50;5170786;27;20070;-59
2021/06/29 02:30:32;;;;;;;11.52;3.90;;;;;;;17.09;88.02;101310.66;5169696;27;20042;-60
2021/06/29 02:33:00;;;;;;;8.50;3.60;;;;;;;17.08;88.07;101307.00;5169889;27;20064;-60
2021/06/29 02:35:29;;;;;;;8.90;3.45;;;;;;;17.09;88.35;101307.84;5169833;27;20070;-60
2021/06/29 02:37:58;;;;;;;6.57;3.45;;;;;;;17.10;88.38;101310.34;5171043;27;20483;-58
2021/06/29 02:40:26;;;;;;;9.65;3.70;;;;;;;17.10;88.25;101310.34;5169022;27;20046;-61
2021/06/29 02:42:53;;;;;;;9.68;3.35;;;;;;;17.11;88.29;101297.06;5162337;27;20085;-59
2021/06/29 02:45:23;;;;;;;11.95;3.05;;;;;;;17.12;88.58;101302.38;5166495;27;20074;-60
2021/06/29 02:47:51;;;;;;;10.02;3.70;;;;;;;17.12;88.35;101299.56;5166784;27;20039;-61
2021/06/29 02:50:20;;;;;;;9.48;3.50;;;;;;;17.13;88.71;101314.47;5160314;27;20553;-62
2021/06/29 02:52:47;;;;;;;10.15;4.07;;;;;;;17.13;88.54;101320.13;5164113;27;20045;-57
2021/06/29 02:55:16;;;;;;;13.43;3.80;;;;;;;17.11;88.70;101319.63;5164594;27;20038;-57
2021/06/29 02:57:45;;;;;;;9.70;3.47;;;;;;;17.10;88.80;101320.78;5168986;27;20078;-58
2021/06/29 03:00:15;;;;;;;10.82;3.90;;;;;;;17.09;88.85;101316.31;5169499;27;20071;-57
2021/06/29 03:02:45;;;;;;;15.40;4.45;;;;;;;17.07;88.79;101299.72;5168852;27;20094;-59
2021/06/29 03:05:15;;;;;;;12.85;3.67;;;;;;;17.08;88.94;101304.19;5168846;27;20042;-59
2021/06/29 03:07:44;;;;;;;8.90;3.80;;;;;;;17.09;88.90;101311.50;5169843;27;20050;-61
2021/06/29 03:10:13;;;;;;;11.48;4.13;;;;;;;17.11;89.03;101305.53;5162061;27;20049;-63
2021/06/29 03:12:41;;;;;;;9.05;3.42;;;;;;;17.10;89.41;101306.69;5166649;27;20076;-63
2021/06/29 03:15:10;;;;;;;9.85;3.60;;;;;;;17.10;89.37;101304.69;5170321;27;20038;-60
2021/06/29 03:17:38;;;;;;;11.55;4.20;;;;;;;17.09;89.45;101308.66;5158646;27;20050;-61
2021/06/29 03:20:09;;;;;;;8.18;3.58;;;;;;;17.11;89.46;101302.69;5165953;27;20038;-61
2021/06/29 03:22:38;;;;;;;10.25;3.40;;;;;;;17.10;89.48;101303.88;5169372;27;20064;-61
2021/06/29 03:25:07;;;;;;;10.68;3.95;;;;;;;17.10;89.82;101309.50;5169410;27;20443;-60
2021/06/29 03:27:35;;;;;;;11.98;4.50;;;;;;;17.10;89.54;101299.06;5168847;27;20494;-61
2021/06/29 03:30:04;;;;;;;12.55;3.83;;;;;;;17.09;89.71;101307.84;5169902;27;20043;-61
2021/06/29 03:32:32;;;;;;;9.85;3.30;;;;;;;17.11;89.78;101303.53;5169211;27;20039;-66
2021/06/29 03:35:02;;;;;;;11.93;4.55;;;;;;;17.13;89.85;101294.75;5169200;27;20099;-64
2021/06/29 03:37:31;;;;;;;9.63;4.38;;;;;;;17.13;89.86;101286.28;5158081;27;20046;-59
2021/06/29 03:39:59;;;;;;;14.32;4.95;;;;;;;17.14;89.82;101279.47;5162561;27;20111;-59
2021/06/29 03:42:27;;;;;;;10.05;4.35;;;;;;;17.15;89.96;101279.16;5168885;27;20112;-58
2021/06/29 03:44:55;;;;;;;10.18;4.00;;;;;;;17.16;90.21;101288.44;5164349;27;20055;-53
2021/06/29 03:47:23;;;;;;;10.43;3.72;;;;;;;17.13;90.07;101298.38;5165394;27;20073;-58
2021/06/29 03:49:51;;;;;;;9.80;4.57;;;;;;;17.14;90.02;101293.59;5165976;27;20047;-60
2021/06/29 03:52:19;;;;;;;11.68;3.97;;;;;;;17.14;90.07;101282.31;5163054;27;20039;-60
2021/06/29 03:54:48;;;;;;;13.70;5.35;;;;;;;17.14;90.04;101276.66;5160879;27;20118;-61
2021/06/29 03:57:16;;;;;;;10.57;4.75;;;;;;;17.14;90.04;101271.03;5168784;27;20038;-57
2021/06/29 03:59:44;;;;;;;11.43;4.40;;;;;;;17.14;90.26;101276.66;5168434;27;20475;-63
2021/06/29 04:02:12;;;;;;;10.30;4.00;;;;;;;17.14;90.33;101273.84;5157006;27;20095;-60
2021/06/29 04:04:40;;;;;;;12.43;4.72;;;;;;;17.13;90.32;101275.84;5158409;27;20043;-60
2021/06/29 04:07:09;;;;;;;15.88;4.53;;;;;;;17.14;90.61;101276.66;5163472;27;20039;-61
2021/06/29 04:09:38;;;;;;;13.10;3.90;;;;;;;17.15;90.31;101279.16;5164653;27;20138;-64
2021/06/29 04:12:08;;;;;;;14.82;4.75;;;;;;;17.17;90.67;101278.81;5164095;27;20053;-60
2021/06/29 04:14:37;;;;;;;12.40;4.25;;;;;;;17.18;90.74;101274.84;5170640;27;20057;-62
2021/06/29 04:17:05;;;;;;;12.30;4.65;;;;;;;17.20;90.79;101281.78;5160971;27;20483;-60
2021/06/29 04:19:33;;;;;;;13.23;4.85;;;;;;;17.20;90.77;101275.31;5167266;27;20046;-59
2021/06/29 04:22:01;;;;;;;12.98;5.38;;;;;;;17.20;90.83;101276.13;5171815;27;20050;-60
2021/06/29 04:24:28;;;;;;;13.10;4.63;;;;;;;17.19;90.73;101273.66;5172395;27;20073;-58
2021/06/29 04:26:56;;;;;;;14.88;4.97;;;;;;;17.19;90.74;101268.84;5165059;27;20455;-60
2021/06/29 04:29:26;;;;;;;15.80;5.40;;;;;;;17.18;90.82;101270.03;5162300;27;20077;-60
2021/06/29 04:31:54;;;;;;;10.48;4.22;;;;;;;17.18;90.86;101270.03;5172679;27;20122;-60
2021/06/29 04:34:22;;;;;;;10.45;4.25;;;;;;;17.18;91.06;101270.03;5158382;27;20030;-62
2021/06/29 04:36:50;;;;;;;12.27;4.70;;;;;;;17.17;91.21;101267.53;5161837;27;20443;-61
2021/06/29 04:39:18;;;;;;;11.77;5.03;;;;;;;17.16;91.23;101280.81;5170722;27;20039;-60
2021/06/29 04:41:46;;;;;;;14.50;5.15;;;;;;;17.16;91.39;101283.63;5155260;27;20042;-61
2021/06/29 04:44:13;;;;;;;13.43;4.97;;;;;;;17.14;91.31;101291.59;5163338;27;20551;-62
2021/06/29 04:46:43;;;;;;;16.13;4.82;;;;;;;17.13;91.54;101283.47;5164438;27;20094;-59
2021/06/29 04:49:11;;;;;;;12.88;4.18;;;;;;;17.14;91.42;101287.94;5171518;27;20443;-59
2021/06/29 04:51:39;;;;;;;14.63;5.38;;;;;;;17.13;91.69;101294.75;5163253;27;20081;-61
2021/06/29 04:54:07;;;;;;;17.10;4.78;;;;;;;17.13;91.57;101291.91;5169036;27;20496;-62
2021/06/29 04:56:35;;;;;;;13.55;4.35;;;;;;;17.15;91.72;101286.78;5171271;27;20070;-61
2021/06/29 04:59:03;;;;;;;13.98;5.22;;;;;;;17.16;91.70;101283.63;5171452;27;20034;-62
2021/06/29 05:01:31;;;;;;;17.13;5.70;;;;;;;17.19;91.78;101276.47;5171575;27;20038;-59
2021/06/29 05:04:00;;;;;;;16.70;5.57;;;;;;;17.19;91.71;101270.81;5171525;27;20073;-59
2021/06/29 05:06:28;;;;;;;16.67;5.68;;;;;;;17.18;91.62;101267.22;5171778;27;20034;-56
2021/06/29 05:08:56;;;;;;;15.02;5.53;;;;;;;17.18;91.66;101274.84;5171765;27;20034;-59
2021/06/29 05:11:24;;;;;;;15.30;5.15;;;;;;;17.16;91.83;101263.88;5170960;27;20086;-58
2021/06/29 05:13:52;;;;;;;17.05;5.40;;;;;;;17.17;91.80;101259.06;5160506;27;20047;-60
2021/06/29 05:16:20;;;;;;;12.43;5.13;;;;;;;17.16;91.84;101263.88;5166904;27;20094;-61
2021/06/29 05:18:48;;;;;;;19.58;5.30;;;;;;;17.18;91.89;101270.03;5171078;27;20042;-61
2021/06/29 05:21:17;;;;;;;14.55;4.97;;;;;;;17.19;91.90;101265.19;5171322;27;20063;-63
2021/06/29 05:23:45;;;;;;;10.70;4.68;;;;;;;17.19;91.98;101268.84;5170946;27;20027;-60
2021/06/29 05:26:13;;;;;;;16.77;4.82;;;;;;;17.18;91.96;101270.03;5170471;27;20070;-61
2021/06/29 05:28:40;;;;;;;12.15;4.45;;;;;;;17.19;91.88;101265.19;5172568;27;20090;-60
2021/06/29 05:31:09;;;;;;;13.48;4.72;;;;;;;17.20;92.11;101264.03;5170556;27;20038;-63
2021/06/29 05:33:37;;;;;;;13.73;5.10;;;;;;;17.18;92.00;101264.38;5165973;27;20145;-61
2021/06/29 05:36:05;;;;;;;16.23;5.43;;;;;;;17.17;91.93;101271.19;5171213;27;20095;-60
2021/06/29 05:38:35;;;;;;;17.73;4.90;;;;;;;17.16;92.01;101269.53;5167869;27;20043;-59
2021/06/29 05:41:03;;;;;;;13.82;5.10;;;;;;;17.17;92.21;101270.34;5161570;27;20101;-60
2021/06/29 05:43:31;;;;;;;14.65;5.50;;;;;;;17.18;91.95;101266.38;5161836;27;20046;-61
2021/06/29 05:45:59;;;;;;;10.80;4.50;;;;;;;17.19;92.02;101265.19;5170782;27;20072;-61
2021/06/29 05:48:32;;;;;;;15.63;4.78;;;;;;;17.21;92.15;101271.31;5161405;27;20502;-60
2021/06/29 05:51:00;;;;;;;13.93;5.40;;;;;;;17.18;91.98;101255.09;5162757;27;20066;-63
2021/06/29 05:53:29;;;;;;;12.82;4.65;;;;;;;17.21;92.13;101269.34;5161930;27;20543;-62
2021/06/29 05:55:59;;;;;;;12.63;5.20;;;;;;;17.22;92.12;101264.53;5159292;27;20490;-60
2021/06/29 05:58:28;;;;;;;13.10;4.93;;;;;;;17.23;92.23;101269.00;5170561;27;20398;-59
2021/06/29 06:00:56;;;;;;;13.02;4.93;;;;;;;17.23;92.05;101280.28;5170343;27;20141;-60
2021/06/29 06:03:24;;;;;;;12.73;5.20;;;;;;;17.23;92.05;101280.28;5170453;27;20177;-59
2021/06/29 06:05:51;;;;;;;12.57;5.40;;;;;;;17.22;92.16;101284.25;5170652;27;20091;-62
2021/06/29 06:08:19;;;;;;;19.17;6.00;;;;;;;17.24;92.09;101287.59;5170038;27;20073;-60
2021/06/29 06:10:47;;;;;;;14.07;5.40;;;;;;;17.23;92.40;101300.84;5170171;27;20034;-62
2021/06/29 06:13:16;;;;;;;13.20;5.38;;;;;;;17.26;92.34;101296.53;5170573;27;20086;-60
2021/06/29 06:15:44;;;;;;;19.02;5.60;;;;;;;17.26;92.12;101305.00;5170545;27;20152;-62
2021/06/29 06:18:12;;;;;;;13.52;5.35;;;;;;;17.26;92.27;101296.53;5170768;27;20038;-63
2021/06/29 06:20:41;;;;;;;16.13;5.63;;;;;;;17.26;92.04;101302.19;5165134;27;20041;-61
2021/06/29 06:23:08;;;;;;;13.88;4.72;;;;;;;17.28;92.08;101299.88;5169885;27;20564;-61
2021/06/29 06:25:36;;;;;;;12.50;5.40;;;;;;;17.29;92.16;101290.25;5165707;27;20406;-61
2021/06/29 06:28:05;;;;;;;17.40;5.32;;;;;;;17.31;91.99;101290.72;5170489;27;20380;-60
2021/06/29 06:30:35;;;;;;;16.50;5.72;;;;;;;17.29;91.84;101293.06;5164809;27;20046;-60
2021/06/29 06:33:02;;;;;;;15.45;5.78;;;;;;;17.28;91.80;101304.66;5170400;27;20039;-61
2021/06/29 06:35:30;;;;;;;17.10;6.00;;;;;;;17.26;91.95;101307.81;5164947;27;20043;-60
2021/06/29 06:37:58;;;;;;;16.67;5.60;;;;;;;17.25;91.90;101302.50;5160548;27;20117;-61
2021/06/29 06:40:26;;;;;;;17.15;5.50;;;;;;;17.25;92.01;101308.97;5162515;27;20038;-61
2021/06/29 06:42:54;;;;;;;15.88;5.50;;;;;;;17.25;91.92;101306.16;5160488;27;20511;-61
2021/06/29 06:45:24;;;;;;;12.45;5.03;;;;;;;17.27;92.10;101303.00;5160991;27;20486;-60
2021/06/29 06:47:54;;;;;;;15.75;5.63;;;;;;;17.28;92.02;101305.50;5161442;27;20105;-58
2021/06/29 06:50:22;;;;;;;16.10;5.68;;;;;;;17.28;91.79;101299.88;5160813;27;20439;-60
2021/06/29 06:52:51;;;;;;;17.50;5.32;;;;;;;17.28;91.89;101297.03;5162552;27;20095;-60
2021/06/29 06:55:24;;;;;;;15.60;5.43;;;;;;;17.28;91.94;101293.38;5168557;27;20475;-59
2021/06/29 06:57:52;;;;;;;17.27;4.78;;;;;;;17.26;91.71;101295.72;5157871;27;20103;-61
2021/06/29 07:00:22;;;;;;;18.42;5.72;;;;;;;17.25;91.68;101300.53;5167942;27;20095;-57
2021/06/29 07:02:50;;;;;;;20.67;5.72;;;;;;;17.22;91.73;101296.38;5157957;27;20046;-59
2021/06/29 07:05:20;;;;;;;19.42;5.10;;;;;;;17.22;91.83;101295.53;5165753;27;20079;-60
2021/06/29 07:07:47;;;;;;;21.58;6.30;;;;;;;17.21;91.84;101291.06;5169559;27;20038;-59
2021/06/29 07:10:15;;;;;;;17.13;5.40;;;;;;;17.21;91.67;101293.88;5168872;27;20371;-64
2021/06/29 07:12:43;;;;;;;17.83;4.88;;;;;;;17.22;91.65;101289.91;5158839;27;20115;-60
2021/06/29 07:15:12;;;;;;;14.15;5.53;;;;;;;17.23;91.40;101294.38;5162060;27;20063;-61
2021/06/29 07:17:40;;;;;;;16.30;5.07;;;;;;;17.23;91.39;101285.91;5169236;27;20051;-60
2021/06/29 07:20:09;;;;;;;17.90;4.55;;;;;;;17.28;91.51;101288.56;5169317;27;20095;-59
2021/06/29 07:22:39;;;;;;;17.83;5.35;;;;;;;17.32;91.70;101283.94;5173188;27;20046;-61
2021/06/29 07:25:08;;;;;;;20.80;5.75;;;;;;;17.33;91.15;101281.94;5157806;27;20174;-60
2021/06/29 07:27:36;;;;;;;18.67;5.57;;;;;;;17.35;90.90;101285.25;5170792;27;20049;-60
2021/06/29 07:30:06;;;;;;;19.90;5.97;;;;;;;17.36;90.68;101281.28;5168524;27;20106;-62
2021/06/29 07:32:34;;;;;;;15.02;5.10;;;;;;;17.34;90.60;101284.44;5161138;27;20031;-60
2021/06/29 07:35:02;;;;;;;13.23;5.18;;;;;;;17.35;90.60;101282.44;5166543;27;20043;-60
2021/06/29 07:37:32;;;;;;;16.27;5.47;;;;;;;17.34;90.63;101287.25;5165834;27;20081;-60
2021/06/29 07:40:01;;;;;;;15.50;5.40;;;;;;;17.35;90.39;101297.38;5159540;27;20034;-60
2021/06/29 07:42:29;;;;;;;13.70;5.47;;;;;;;17.36;90.44;101301.84;5160815;27;20547;-61
2021/06/29 07:44:57;;;;;;;17.70;5.25;;;;;;;17.37;90.41;101299.88;5168294;27;20042;-60
2021/06/29 07:47:25;;;;;;;12.65;4.97;;;;;;;17.37;90.34;101297.88;5158409;27;20046;-59
2021/06/29 07:49:53;;;;;;;13.30;5.32;;;;;;;17.37;90.19;101297.03;5171613;27;20103;-60
2021/06/29 07:52:21;;;;;;;15.80;4.97;;;;;;;17.36;90.35;101295.38;5161318;27;20050;-61
2021/06/29 07:54:49;;;;;;;15.18;5.30;;;;;;;17.36;90.21;101299.03;5171171;27;20436;-62
2021/06/29 07:57:18;;;;;;;15.55;4.88;;;;;;;17.36;90.03;101295.38;5172425;27;20046;-59
2021/06/29 07:59:46;;;;;;;16.65;4.90;;;;;;;17.36;90.13;101284.94;5172584;27;20478;-60
2021/06/29 08:02:14;;;;;;;19.42;5.68;;;;;;;17.38;90.47;101276.97;5172462;27;20083;-60
2021/06/29 08:04:43;;;;;;;16.17;5.53;;;;;;;17.39;90.22;101286.22;5172649;27;20038;-59
2021/06/29 08:07:11;;;;;;;12.38;4.38;;;;;;;17.38;90.20;101298.69;5172148;27;20042;-62
2021/06/29 08:09:39;;;;;;;15.60;5.60;;;;;;;17.37;90.25;101300.69;5172966;27;20073;-59
2021/06/29 08:12:16;;;;;;;16.40;5.00;;;;;;;17.36;90.28;101296.22;5172789;27;20062;-61
2021/06/29 08:14:46;;;;;;;12.60;4.88;;;;;;;17.35;90.42;101307.81;5172140;27;20466;-60
2021/06/29 08:17:14;;;;;;;16.67;5.28;;;;;;;17.35;90.17;101316.28;5172566;27;20054;-60
2021/06/29 08:19:42;;;;;;;13.98;5.20;;;;;;;17.34;90.38;101320.28;5172453;27;20099;-60
2021/06/29 08:22:10;;;;;;;12.63;5.20;;;;;;;17.31;90.27;101316.13;5171841;27;20509;-60
2021/06/29 08:24:38;;;;;;;12.23;5.00;;;;;;;17.32;90.25;101317.78;5166224;27;20050;-59
2021/06/29 08:27:06;;;;;;;15.43;5.82;;;;;;;17.33;90.24;101312.97;5163305;27;20065;-60
2021/06/29 08:29:34;;;;;;;12.18;5.05;;;;;;;17.31;90.34;101318.94;5164685;27;20142;-59
2021/06/29 08:32:04;;;;;;;18.02;5.95;;;;;;;17.31;90.43;101327.41;5169101;27;20074;-59
2021/06/29 08:34:32;;;;;;;13.23;5.15;;;;;;;17.30;90.28;101324.91;5175811;27;20054;-60
2021/06/29 08:37:00;;;;;;;11.73;5.43;;;;;;;17.28;90.19;101322.44;5168388;27;20102;-61
2021/06/29 08:39:28;;;;;;;13.50;5.22;;;;;;;17.29;90.12;101328.91;5170062;27;20043;-59
2021/06/29 08:41:56;;;;;;;14.85;5.22;;;;;;;17.27;90.34;101332.06;5171356;27;20038;-59
2021/06/29 08:44:28;;;;;;;13.18;4.78;;;;;;;17.27;90.19;101336.88;5166612;27;20062;-61
2021/06/29 08:46:56;;;;;;;16.02;5.50;;;;;;;17.25;90.16;101342.84;5162207;27;20077;-59
2021/06/29 08:49:25;;;;;;;12.60;4.93;;;;;;;17.25;90.29;101348.47;5163566;27;20087;-59
2021/06/29 08:51:57;;;;;;;14.07;5.55;;;;;;;17.21;90.44;101350.28;5164157;27;20123;-59
2021/06/29 08:54:25;;;;;;;13.73;5.05;;;;;;;17.18;90.73;101360.28;5162584;27;20077;-58
2021/06/29 08:56:53;;;;;;;14.43;5.40;;;;;;;17.18;91.02;101362.25;5171229;27;20042;-57
2021/06/29 08:59:21;;;;;;;13.38;5.78;;;;;;;17.18;91.22;101365.09;5170411;27;20073;-61
2021/06/29 09:01:49;;;;;;;19.77;6.25;;;;;;;17.17;91.54;101366.25;5162978;27;20451;-63
2021/06/29 09:04:49;;;;;;;18.40;6.55;;;;;;;17.16;91.54;101373.03;5171550;27;20097;-61
2021/06/29 09:07:19;;;;;;;19.13;6.00;;;;;;;17.11;92.27;101376.03;5160478;27;20115;-60
2021/06/29 09:09:48;;;;;;;17.20;5.07;;;;;;;17.08;92.55;101371.88;5171657;27;20069;-61
2021/06/29 09:12:43;;;;;;;13.38;5.43;;;;;;;17.06;92.75;101370.53;5171145;27;20538;-62
2021/06/29 09:15:32;;;;;;;14.43;5.43;;;;;;;16.99;93.34;101381.47;5163782;27;20478;-53
2021/06/29 09:18:20;;;;;;;24.38;6.03;;;;;;;16.91;93.92;101387.94;5162683;27;20043;-55
2021/06/29 09:20:53;;;;;;;25.15;5.60;;;;;;;16.83;94.41;101386.75;5166610;27;20046;-50
2021/06/29 09:23:24;;;;;;;20.33;5.55;;;;;;;16.78;94.83;101393.41;5170861;27;20115;-54
2021/06/29 09:25:54;;;;;;;9.40;4.03;;;;;;;16.71;95.05;101390.22;5171872;27;20070;-57
2021/06/29 09:28:24;;;;;;;13.95;4.03;;;;;;;16.64;95.47;101391.84;5171145;27;20287;-56
2021/06/29 09:30:54;;;;;;;16.88;4.15;;;;;;;16.59;95.89;101384.34;5162580;27;20095;-52
2021/06/29 09:33:24;;;;;;;16.02;4.82;;;;;;;16.53;96.24;101380.84;5162681;27;20161;-52
2021/06/29 09:35:55;;;;;;;12.38;4.88;;;;;;;16.45;96.40;101390.09;5163094;27;20050;-51
2021/06/29 09:38:27;;;;;;;17.55;4.95;;;;;;;16.40;96.55;101389.41;5163027;27;20077;-54
2021/06/29 09:41:00;;;;;;;28.90;6.38;;;;;;;16.36;97.06;101385.59;5161025;27;20050;-48
2021/06/29 09:43:30;;;;;;;18.65;5.15;;;;;;;16.31;97.46;101377.28;5169300;27;20054;-50
2021/06/29 09:46:01;;;;;;;14.82;4.75;;;;;;;16.26;98.18;101383.91;5170226;27;20104;-55
2021/06/29 09:48:41;;;;;;;23.75;6.18;;;;;;;16.22;98.13;101377.25;5159406;27;20130;-56
2021/06/29 09:51:16;;;;;;;16.80;4.82;;;;;;;16.16;98.39;101378.56;5162184;27;20404;-58
2021/06/29 09:53:47;;;;;;;14.70;5.25;;;;;;;16.11;98.76;101373.91;5162297;27;20078;-59
2021/06/29 09:56:16;;;;;;;13.02;4.43;;;;;;;16.09;99.12;101370.56;5169146;27;20038;-58
2021/06/29 09:58:50;;;;;;;23.33;6.65;;;;;;;16.06;99.22;101365.59;5159214;27;20051;-59
2021/06/29 10:01:20;;;;;;;15.18;5.65;;;;;;;16.03;99.27;101363.41;5160777;27;20050;-63
2021/06/29 10:03:51;;;;;;;18.10;5.70;;;;;;;16.00;99.52;101354.78;5170436;27;20070;-60
2021/06/29 10:06:22;;;;;;;16.10;4.80;;;;;;;15.97;99.72;101356.28;5170698;27;20658;-60
2021/06/29 10:08:51;;;;;;;20.42;5.88;;;;;;;15.94;99.83;101356.94;5170035;27;20482;-59
2021/06/29 10:11:25;;;;;;;15.73;5.88;;;;;;;15.91;99.94;101343.50;5169242;27;20398;-60
2021/06/29 10:13:56;;;;;;;20.25;7.07;;;;;;;15.87;100.00;101339.66;5169692;27;20038;-63
2021/06/29 10:16:29;;;;;;;18.63;6.97;;;;;;;15.84;100.00;101331.84;5171947;27;20491;-62
2021/06/29 10:21:49;;;;;;;14.23;6.50;;;;;;;15.80;100.00;101323.22;5157250;27;20126;-62
2021/06/29 10:24:20;;;;;;;17.73;7.75;;;;;;;15.77;100.00;101311.81;5161101;27;20046;-62
2021/06/29 10:26:51;;;;;;;17.80;7.55;;;;;;;15.76;100.00;101316.59;5165813;27;20069;-63
2021/06/29 10:29:21;;;;;;;13.38;5.85;;;;;;;15.76;100.00;101310.97;5161830;27;20046;-61
2021/06/29 10:31:51;;;;;;;21.90;7.65;;;;;;;15.77;100.00;101309.00;5170459;27;20045;-60
2021/06/29 10:34:20;;;;;;;19.33;7.03;;;;;;;15.77;100.00;101314.63;5161646;27;20099;-61
2021/06/29 10:36:52;;;;;;;20.63;7.00;;;;;;;15.80;100.00;101317.59;5169514;27;20042;-62
2021/06/29 10:39:23;;;;;;;19.42;7.65;;;;;;;15.81;100.00;101312.81;5164978;27;20091;-60
2021/06/29 10:41:54;;;;;;;15.63;6.97;;;;;;;15.84;100.00;101317.78;5169534;27;20513;-60
2021/06/29 10:44:23;;;;;;;16.10;6.63;;;;;;;15.84;100.00;101329.88;5165068;27;20050;-59
2021/06/29 10:46:52;;;;;;;17.20;6.22;;;;;;;15.87;100.00;101336.84;5165547;27;20043;-57
2021/06/29 10:49:35;;;;;;;10.23;5.78;;;;;;;15.87;100.00;101350.91;5164142;27;20034;-54
2021/06/29 10:52:08;;;;;;;11.65;5.97;;;;;;;15.86;100.00;101360.50;5158949;27;20451;-57
2021/06/29 10:54:46;;;;;;;14.18;6.22;;;;;;;15.84;100.00;101377.72;5170827;27;20038;-58
2021/06/29 10:57:17;;;;;;;18.52;7.35;;;;;;;15.84;100.00;101379.69;5158482;27;20089;-57
2021/06/29 10:59:49;;;;;;;14.75;6.15;;;;;;;15.86;100.00;101388.66;5170627;27;20051;-59
2021/06/29 11:02:31;;;;;;;12.38;5.95;;;;;;;15.85;100.00;101395.44;5158839;27;20083;-59
2021/06/29 11:05:00;;;;;;;12.88;5.82;;;;;;;15.86;100.00;101394.28;5168867;27;20042;-57
2021/06/29 11:07:44;;;;;;;14.27;6.68;;;;;;;15.89;100.00;101388.03;5157914;27;20035;-57
2021/06/29 11:10:15;;;;;;;11.57;6.13;;;;;;;15.93;100.00;101383.41;5168733;27;20039;-53
2021/06/29 11:12:52;;;;;;;12.65;6.32;;;;;;;16.00;100.00;101369.69;5169119;27;20050;-56
2021/06/29 11:15:40;;;;;;;19.70;6.47;;;;;;;16.12;100.00;101352.22;5169138;27;20047;-58
2021/06/29 11:18:09;;;;;;;9.98;5.43;;;;;;;16.19;100.00;101339.28;5160248;27;20045;-59
2021/06/29 11:20:42;;;;;;;14.13;6.22;;;;;;;16.27;100.00;101331.22;5168839;27;20121;-62
2021/06/29 11:23:17;;;;;;;13.23;6.25;;;;;;;16.34;100.00;101335.22;5171145;27;20497;-62
2021/06/29 11:25:53;;;;;;;11.30;6.07;;;;;;;16.37;100.00;101340.22;5173058;27;20442;-61
2021/06/29 11:28:43;;;;;;;14.00;6.30;;;;;;;16.39;100.00;101354.78;5173455;27;20044;-65
2021/06/29 11:31:13;;;;;;;11.60;5.55;;;;;;;16.43;100.00;101363.41;5172863;27;20043;-62